Time;durP1;ratioP1;P1;durP2;ratioP2;P2;SDS_P1;SDS_P2;PMS_P1;PMS_P2;Temp;Humidity;BMP_temperature;BMP_pressure;BME280_temperature;BME280_humidity;BME280_pressure;Samples;Min_cycle;Max_cycle;Signal;HPM_P1;HPM_P2
2022/10/30 00:01:01;;;;;;;13.38;7.65;;;;;;;15.46;66.35;100255.42;1800321;77;21030;-62
2022/10/30 00:03:27;;;;;;;12.47;7.70;;;;;;;15.49;66.16;100245.33;1793329;77;21050;-63
2022/10/30 00:05:54;;;;;;;11.45;7.10;;;;;;;15.49;66.11;100263.89;1816765;79;21306;-61
2022/10/30 00:08:21;;;;;;;13.08;6.87;;;;;;;15.45;66.12;100250.63;1801965;77;20991;-64
2022/10/30 00:10:51;;;;;;;12.85;6.65;;;;;;;15.40;66.15;100255.06;1777573;79;21124;-64
2022/10/30 00:13:17;;;;;;;13.08;7.72;;;;;;;15.38;66.14;100245.13;1816826;77;21002;-64
2022/10/30 00:15:49;;;;;;;11.20;7.03;;;;;;;15.38;66.15;100254.41;1809253;79;21042;-63
2022/10/30 00:18:16;;;;;;;15.75;8.00;;;;;;;15.44;65.96;100253.44;1812515;77;22176;-63
2022/10/30 00:20:42;;;;;;;15.68;7.65;;;;;;;15.44;65.81;100259.56;1799327;79;21068;-65
2022/10/30 00:23:09;;;;;;;13.93;7.85;;;;;;;15.39;65.86;100252.06;1802245;77;21010;-67
2022/10/30 00:25:36;;;;;;;12.50;7.22;;;;;;;15.37;65.71;100254.55;1800459;79;21042;-66
2022/10/30 00:28:04;;;;;;;15.13;7.50;;;;;;;15.31;65.64;100265.27;1805127;77;20978;-68
2022/10/30 00:30:32;;;;;;;11.70;7.45;;;;;;;15.29;65.73;100247.37;1783934;78;21112;-62
2022/10/30 00:32:59;;;;;;;11.95;6.70;;;;;;;15.32;65.78;100260.83;1771515;78;21044;-64
2022/10/30 00:35:25;;;;;;;12.82;6.83;;;;;;;15.34;65.69;100266.29;1782584;79;21014;-67
2022/10/30 00:37:52;;;;;;;15.45;7.22;;;;;;;15.35;65.66;100265.31;1801796;79;20998;-63
2022/10/30 00:40:19;;;;;;;12.35;7.58;;;;;;;15.36;65.65;100267.46;1789662;78;21033;-61
2022/10/30 00:42:45;;;;;;;11.12;6.83;;;;;;;15.33;65.72;100273.92;1770649;79;21127;-64
2022/10/30 00:45:13;;;;;;;12.70;6.95;;;;;;;15.28;65.75;100272.23;1780838;78;21076;-64
2022/10/30 00:47:57;;;;;;;11.48;7.28;;;;;;;15.26;65.88;100258.28;1769796;79;21140;-64
2022/10/30 00:50:28;;;;;;;10.35;6.30;;;;;;;15.29;65.80;100255.83;1767663;79;21049;-61
2022/10/30 00:53:11;;;;;;;11.88;7.87;;;;;;;15.30;65.81;100253.50;1781752;78;21589;-64
2022/10/30 00:55:49;;;;;;;13.22;7.92;;;;;;;15.24;65.90;100250.48;1791918;78;21063;-62
2022/10/30 00:58:19;;;;;;;14.38;7.30;;;;;;;15.21;66.08;100253.95;1777674;78;21053;-65
2022/10/30 01:00:51;;;;;;;13.08;6.83;;;;;;;15.13;66.27;100240.17;1760589;81;21048;-64
2022/10/30 01:03:18;;;;;;;12.23;7.37;;;;;;;15.14;66.32;100235.69;1776731;78;21068;-64
2022/10/30 01:05:49;;;;;;;12.53;7.15;;;;;;;15.14;66.21;100239.67;1759880;79;20978;-64
2022/10/30 01:08:16;;;;;;;12.98;7.37;;;;;;;15.14;66.16;100235.69;1796420;78;21194;-64
2022/10/30 01:10:43;;;;;;;12.35;7.58;;;;;;;15.13;66.22;100250.77;1799432;79;21052;-63
2022/10/30 01:13:09;;;;;;;12.78;7.30;;;;;;;15.08;66.24;100250.87;1801517;78;21080;-64
2022/10/30 01:15:43;;;;;;;11.00;6.83;;;;;;;15.04;66.28;100258.31;1801038;79;21579;-66
2022/10/30 01:18:40;;;;;;;12.80;7.47;;;;;;;15.02;66.29;100261.61;1782375;78;21045;-64
2022/10/30 01:21:15;;;;;;;12.37;7.58;;;;;;;15.05;66.16;100267.44;1783442;79;21210;-61
2022/10/30 01:23:54;;;;;;;13.00;7.78;;;;;;;15.04;66.12;100264.44;1785021;78;21481;-65
2022/10/30 01:26:44;;;;;;;11.43;7.42;;;;;;;15.00;66.00;100260.95;1776345;78;21088;-65
2022/10/30 01:29:23;;;;;;;10.93;6.95;;;;;;;14.99;65.94;100269.37;1796903;78;21052;-65
2022/10/30 01:32:08;;;;;;;13.45;6.87;;;;;;;14.98;65.94;100258.95;1796403;79;20982;-62
2022/10/30 01:34:50;;;;;;;9.98;6.55;;;;;;;14.98;65.92;100257.13;1774409;78;21034;-63
2022/10/30 01:37:31;;;;;;;13.80;7.03;;;;;;;15.02;65.90;100249.19;1776202;78;20979;-65
2022/10/30 01:40:05;;;;;;;13.70;7.50;;;;;;;15.01;65.99;100240.06;1771798;78;21061;-69
2022/10/30 01:42:54;;;;;;;;;;;;;;;14.96;66.20;100239.23;1774669;79;21089;-64
2022/10/30 01:45:30;;;;;;;9.05;6.37;;;;;;;14.94;66.24;100241.18;1783287;78;20206;-65
2022/10/30 01:48:10;;;;;;;15.35;7.45;;;;;;;14.80;66.51;100220.56;1801105;79;22164;-65
2022/10/30 01:50:53;;;;;;;11.88;7.10;;;;;;;14.80;66.62;100232.48;1777891;78;21042;-62
2022/10/30 01:53:37;;;;;;;15.45;7.42;;;;;;;14.79;66.40;100237.43;1788193;79;21389;-64
2022/10/30 01:56:13;;;;;;;15.03;7.50;;;;;;;14.77;66.53;100246.85;1800799;79;21038;-64
2022/10/30 01:59:04;;;;;;;12.37;7.53;;;;;;;14.73;66.55;100247.34;1739191;77;21065;-64
2022/10/30 02:01:34;;;;;;;14.75;7.35;;;;;;;14.68;66.51;100245.95;1791767;78;21124;-66
2022/10/30 02:04:01;;;;;;;14.83;7.05;;;;;;;14.64;66.62;100240.64;1795934;78;21062;-64
2022/10/30 02:06:28;;;;;;;10.40;6.00;;;;;;;14.69;66.34;100266.64;1789497;79;21096;-64
2022/10/30 02:08:55;;;;;;;13.30;7.10;;;;;;;14.77;66.06;100272.02;1770052;78;21100;-65
2022/10/30 02:11:24;;;;;;;10.10;6.70;;;;;;;14.78;65.99;100280.31;1787564;79;21617;-64
2022/10/30 02:13:51;;;;;;;11.90;6.45;;;;;;;14.78;65.93;100271.04;1768260;78;21129;-63
2022/10/30 02:16:18;;;;;;;9.18;6.28;;;;;;;14.76;65.95;100269.52;1785826;79;21051;-64
2022/10/30 02:18:44;;;;;;;9.90;6.20;;;;;;;14.72;66.05;100261.55;1798728;78;21094;-63
2022/10/30 02:21:11;;;;;;;12.53;6.25;;;;;;;14.71;66.06;100258.55;1790273;79;21029;-64
2022/10/30 02:23:38;;;;;;;11.20;6.20;;;;;;;14.76;65.89;100264.22;1791252;78;21009;-62
2022/10/30 02:26:05;;;;;;;11.57;6.80;;;;;;;14.77;65.83;100252.65;1781884;79;21219;-64
2022/10/30 02:28:32;;;;;;;10.48;6.05;;;;;;;14.74;65.83;100235.23;1796471;79;21052;-63
2022/10/30 02:30:59;;;;;;;12.25;6.62;;;;;;;14.71;65.77;100266.02;1764768;78;20990;-64
2022/10/30 02:33:25;;;;;;;11.25;6.20;;;;;;;14.65;65.87;100267.45;1762650;80;21104;-65
2022/10/30 02:35:53;;;;;;;10.72;6.58;;;;;;;14.66;65.84;100271.77;1761839;78;21064;-64
2022/10/30 02:38:21;;;;;;;10.55;6.62;;;;;;;14.71;65.63;100276.62;1762109;81;21216;-63
2022/10/30 02:40:49;;;;;;;12.70;6.10;;;;;;;14.73;65.50;100273.31;1772085;78;20967;-60
2022/10/30 02:43:16;;;;;;;9.25;6.42;;;;;;;14.72;65.51;100272.14;1767074;80;21033;-63
2022/10/30 02:45:42;;;;;;;13.58;6.97;;;;;;;14.68;65.40;100275.09;1763351;78;21536;-63
2022/10/30 02:48:09;;;;;;;12.35;5.95;;;;;;;14.64;65.36;100269.77;1762744;78;21111;-63
2022/10/30 02:50:36;;;;;;;10.10;5.55;;;;;;;14.58;65.66;100288.05;1774608;78;21222;-62
2022/10/30 02:53:03;;;;;;;9.88;5.78;;;;;;;14.59;65.64;100279.13;1784329;78;21070;-63
2022/10/30 02:55:30;;;;;;;10.58;6.08;;;;;;;14.61;65.53;100299.70;1787874;78;21034;-63
2022/10/30 02:57:57;;;;;;;12.20;5.90;;;;;;;14.61;65.50;100295.23;1765360;78;21057;-63
2022/10/30 03:00:24;;;;;;;11.33;6.37;;;;;;;14.60;65.55;100280.81;1764525;78;21140;-64
2022/10/30 03:02:55;;;;;;;11.95;5.97;;;;;;;14.56;65.62;100280.72;1762298;81;21198;-64
2022/10/30 03:05:23;;;;;;;9.95;5.97;;;;;;;14.53;65.62;100283.70;1763858;78;20998;-63
2022/10/30 03:07:51;;;;;;;8.48;6.03;;;;;;;14.47;65.79;100282.47;1764953;80;21046;-63
2022/10/30 03:10:18;;;;;;;8.95;5.17;;;;;;;14.47;65.85;100281.14;1775452;78;21022;-63
2022/10/30 03:12:44;;;;;;;8.60;5.87;;;;;;;14.50;65.79;100296.73;1745259;81;21044;-63
2022/10/30 03:15:12;;;;;;;13.13;6.80;;;;;;;14.49;65.78;100288.44;1793368;78;21150;-63
2022/10/30 03:17:38;;;;;;;12.37;6.37;;;;;;;14.45;65.80;100289.73;1770602;80;21049;-63
2022/10/30 03:20:08;;;;;;;12.82;6.75;;;;;;;14.43;65.86;100289.88;1776916;78;21015;-63
2022/10/30 03:22:36;;;;;;;8.50;5.72;;;;;;;14.36;66.02;100281.39;1790767;80;21050;-64
2022/10/30 03:25:04;;;;;;;11.30;5.40;;;;;;;14.35;66.07;100281.03;1779384;78;21014;-64
2022/10/30 03:27:33;;;;;;;10.82;5.80;;;;;;;14.41;65.82;100279.12;1800464;78;21081;-65
2022/10/30 03:30:00;;;;;;;10.40;6.42;;;;;;;14.42;65.80;100282.09;1779652;79;21026;-63
2022/10/30 03:32:29;;;;;;;11.68;6.03;;;;;;;14.40;65.81;100281.41;1785548;78;21047;-64
2022/10/30 03:34:56;;;;;;;9.73;6.33;;;;;;;14.34;65.86;100274.06;1786566;79;20999;-64
2022/10/30 03:37:24;;;;;;;11.55;5.72;;;;;;;14.29;65.94;100277.18;1787740;79;20947;-64
2022/10/30 03:39:51;;;;;;;10.50;5.33;;;;;;;14.26;66.02;100273.50;1779413;80;21207;-63
2022/10/30 03:42:20;;;;;;;9.95;5.45;;;;;;;14.28;65.99;100268.39;1773617;78;21034;-63
2022/10/30 03:44:49;;;;;;;14.03;5.85;;;;;;;14.28;65.96;100273.67;1773879;78;22204;-65
2022/10/30 03:47:16;;;;;;;11.55;5.58;;;;;;;14.24;66.06;100277.63;1774527;80;21025;-64
2022/10/30 03:49:46;;;;;;;10.53;6.17;;;;;;;14.23;66.12;100274.63;1794703;77;21042;-63
2022/10/30 03:52:15;;;;;;;10.88;6.20;;;;;;;14.22;66.13;100282.23;1787092;78;21231;-64
2022/10/30 03:54:43;;;;;;;13.62;5.95;;;;;;;14.15;66.33;100281.14;1788760;77;21046;-64
2022/10/30 03:57:10;;;;;;;9.95;5.65;;;;;;;14.17;66.37;100288.47;1791551;79;21101;-67
2022/10/30 03:59:40;;;;;;;12.78;6.15;;;;;;;14.26;66.20;100290.70;1785608;77;21078;-64
2022/10/30 04:02:17;;;;;;;14.53;5.47;;;;;;;14.30;65.95;100294.20;1785998;77;21014;-63
2022/10/30 04:04:44;;;;;;;11.18;6.17;;;;;;;14.31;65.93;100289.27;1794075;77;21220;-64
2022/10/30 04:07:11;;;;;;;10.10;6.65;;;;;;;14.30;65.87;100287.59;1807079;77;21046;-64
2022/10/30 04:09:38;;;;;;;11.20;5.70;;;;;;;14.30;65.94;100286.77;1785554;79;21057;-64
2022/10/30 04:12:05;;;;;;;13.05;5.55;;;;;;;14.28;65.87;100296.67;1808543;79;21698;-63
2022/10/30 04:14:32;;;;;;;8.38;5.37;;;;;;;14.31;65.66;100289.27;1816671;77;21526;-64
2022/10/30 04:16:59;;;;;;;9.78;6.00;;;;;;;14.28;65.54;100278.97;1789051;79;21199;-63
2022/10/30 04:19:27;;;;;;;9.55;5.83;;;;;;;14.27;65.63;100285.27;1786035;77;21042;-63
2022/10/30 04:21:55;;;;;;;9.38;5.40;;;;;;;14.23;65.60;100287.85;1792070;79;20987;-65
2022/10/30 04:24:22;;;;;;;10.82;6.35;;;;;;;14.16;65.56;100280.17;1794261;77;21011;-64
2022/10/30 04:26:50;;;;;;;13.68;5.67;;;;;;;14.13;65.49;100285.76;1802871;79;21046;-68
2022/10/30 04:29:17;;;;;;;13.08;5.72;;;;;;;14.17;65.44;100284.50;1816663;77;22129;-64
2022/10/30 04:31:44;;;;;;;9.75;5.58;;;;;;;14.21;65.26;100281.88;1816695;79;21030;-63
2022/10/30 04:34:11;;;;;;;7.37;4.33;;;;;;;14.20;65.18;100270.94;1804980;79;21014;-63
2022/10/30 04:36:38;;;;;;;8.63;5.00;;;;;;;14.15;64.82;100273.20;1809887;77;21081;-63
2022/10/30 04:39:04;;;;;;;8.23;5.12;;;;;;;14.10;64.36;100278.11;1787672;79;21097;-65
2022/10/30 04:41:33;;;;;;;9.08;4.78;;;;;;;14.06;64.27;100284.20;1796456;77;21045;-64
2022/10/30 04:44:02;;;;;;;9.40;5.10;;;;;;;14.01;64.36;100279.84;1783677;80;21058;-65
2022/10/30 04:46:32;;;;;;;8.48;5.10;;;;;;;14.02;64.20;100280.66;1790009;77;21100;-67
2022/10/30 04:49:01;;;;;;;9.20;4.72;;;;;;;14.03;63.64;100293.74;1784837;79;21343;-64
2022/10/30 04:51:29;;;;;;;10.55;5.50;;;;;;;14.05;63.34;100291.77;1792553;77;21010;-63
2022/10/30 04:53:57;;;;;;;9.80;4.37;;;;;;;14.06;63.33;100299.25;1820870;77;21231;-67
2022/10/30 04:56:25;;;;;;;11.80;5.00;;;;;;;14.05;62.86;100298.39;1797320;77;21518;-60
2022/10/30 04:58:52;;;;;;;10.85;4.33;;;;;;;14.05;62.48;100293.09;1802248;79;21062;-64
2022/10/30 05:01:19;;;;;;;8.00;4.00;;;;;;;14.07;62.22;100306.19;1793358;77;21034;-70
2022/10/30 05:03:45;;;;;;;7.45;4.17;;;;;;;14.06;62.10;100297.92;1803319;77;21054;-65
2022/10/30 05:06:25;;;;;;;8.48;4.53;;;;;;;14.15;61.88;100304.14;1792230;79;21215;-70
2022/10/30 05:08:54;;;;;;;11.25;3.90;;;;;;;14.16;61.19;100305.31;1803394;77;22150;-61
2022/10/30 05:11:35;;;;;;;8.73;4.62;;;;;;;14.19;60.87;100326.66;1787892;79;21085;-62
2022/10/30 05:14:01;;;;;;;8.80;4.70;;;;;;;14.18;60.72;100319.72;1801973;77;20983;-67
2022/10/30 05:16:28;;;;;;;6.65;4.25;;;;;;;14.18;60.42;100325.84;1794077;79;21092;-63
2022/10/30 05:18:57;;;;;;;7.92;3.85;;;;;;;14.17;60.65;100326.84;1806313;77;22696;-63
2022/10/30 05:21:25;;;;;;;8.90;4.42;;;;;;;14.17;60.82;100333.45;1802643;79;21035;-64
2022/10/30 05:23:54;;;;;;;6.42;3.83;;;;;;;14.20;60.85;100334.95;1796976;77;21070;-64
2022/10/30 05:26:21;;;;;;;8.05;3.90;;;;;;;14.25;60.86;100338.81;1798473;77;21054;-63
2022/10/30 05:28:48;;;;;;;8.75;3.55;;;;;;;14.28;60.59;100334.55;1809732;77;21128;-64
2022/10/30 05:31:15;;;;;;;8.03;3.70;;;;;;;14.29;59.67;100334.08;1782447;79;21149;-64
2022/10/30 05:33:52;;;;;;;9.35;4.00;;;;;;;14.31;59.53;100342.20;1776718;78;21012;-63
2022/10/30 05:36:20;;;;;;;8.18;3.85;;;;;;;14.35;59.31;100342.73;1765752;79;20997;-67
2022/10/30 05:38:47;;;;;;;8.78;4.42;;;;;;;14.28;59.28;100335.87;1786707;78;20992;-63
2022/10/30 05:41:16;;;;;;;7.78;4.12;;;;;;;14.27;59.47;100347.46;1784228;79;21096;-64
2022/10/30 05:43:44;;;;;;;8.70;4.00;;;;;;;14.25;59.68;100346.75;1801439;78;21189;-63
2022/10/30 05:46:10;;;;;;;7.97;4.65;;;;;;;14.22;58.93;100349.72;1780967;78;21112;-66
2022/10/30 05:48:37;;;;;;;6.60;3.37;;;;;;;14.21;59.04;100348.54;1775385;78;21037;-63
2022/10/30 05:51:05;;;;;;;6.92;3.42;;;;;;;14.22;57.89;100351.51;1774118;79;21081;-66
2022/10/30 05:53:33;;;;;;;8.20;3.25;;;;;;;14.25;57.24;100356.52;1782989;78;21457;-63
2022/10/30 05:56:00;;;;;;;10.80;3.52;;;;;;;14.27;57.48;100369.95;1744027;81;21237;-64
2022/10/30 05:58:31;;;;;;;6.72;3.10;;;;;;;14.27;56.87;100368.64;1780701;78;21088;-66
2022/10/30 06:01:03;;;;;;;7.42;3.33;;;;;;;14.27;57.00;100364.66;1793863;79;21073;-62
2022/10/30 06:03:32;;;;;;;6.60;3.47;;;;;;;14.26;57.02;100377.55;1783394;78;21095;-66
2022/10/30 06:05:58;;;;;;;8.75;3.70;;;;;;;14.27;57.28;100373.93;1777627;78;21049;-63
2022/10/30 06:08:25;;;;;;;8.28;3.52;;;;;;;14.25;57.24;100381.16;1781023;78;21210;-67
2022/10/30 06:10:55;;;;;;;8.30;3.77;;;;;;;14.25;57.57;100383.80;1788283;79;21018;-61
2022/10/30 06:13:24;;;;;;;6.90;3.72;;;;;;;14.22;57.08;100386.77;1809938;77;21025;-61
2022/10/30 06:16:03;;;;;;;6.60;3.17;;;;;;;14.20;57.13;100379.94;1814013;78;21031;-63
2022/10/30 06:18:38;;;;;;;11.50;2.87;;;;;;;14.18;56.16;100389.84;1793723;78;21043;-65
2022/10/30 06:21:07;;;;;;;8.33;2.85;;;;;;;14.19;56.14;100385.73;1794681;79;22070;-64
2022/10/30 06:23:47;;;;;;;8.90;2.72;;;;;;;14.20;56.22;100384.73;1797357;78;21020;-64
2022/10/30 06:26:15;;;;;;;6.17;2.80;;;;;;;14.22;56.02;100377.97;1748648;79;21059;-65
2022/10/30 06:28:47;;;;;;;5.85;2.55;;;;;;;14.24;55.80;100394.53;1800154;78;21014;-64
2022/10/30 06:31:14;;;;;;;6.62;2.52;;;;;;;14.26;55.86;100381.52;1804200;77;21058;-66
2022/10/30 06:33:41;;;;;;;7.78;2.98;;;;;;;14.29;55.91;100393.14;1823629;77;21273;-65
2022/10/30 06:36:09;;;;;;;6.00;2.87;;;;;;;14.26;55.68;100384.66;1829685;77;21520;-65
2022/10/30 06:38:36;;;;;;;5.70;2.92;;;;;;;14.22;55.85;100381.48;1815352;77;21450;-65
2022/10/30 06:41:06;;;;;;;7.58;3.05;;;;;;;14.23;56.20;100391.56;1786112;79;21038;-66
2022/10/30 06:45:47;;;;;;;7.95;2.72;;;;;;;14.12;55.74;100376.22;1796719;79;22509;-69
2022/10/30 06:48:14;;;;;;;9.68;2.80;;;;;;;14.19;55.61;100397.64;1734627;80;21364;-68
2022/10/30 06:50:44;;;;;;;5.33;2.70;;;;;;;14.18;54.50;100395.96;1718842;82;20982;-70
2022/10/30 06:53:11;;;;;;;5.72;2.72;;;;;;;14.18;54.49;100400.44;1709486;82;20919;-69
2022/10/30 06:55:40;;;;;;;7.53;2.65;;;;;;;14.18;54.50;100399.11;1723072;81;21045;-69
2022/10/30 06:58:23;;;;;;;6.37;2.37;;;;;;;14.21;54.09;100403.61;1703079;82;21165;-68
2022/10/30 07:00:54;;;;;;;6.65;2.20;;;;;;;14.22;54.38;100401.33;1712197;83;21077;-69
2022/10/30 07:03:39;;;;;;;10.93;2.77;;;;;;;14.22;54.30;100398.68;1700908;82;22145;-68
2022/10/30 07:06:06;;;;;;;5.25;2.15;;;;;;;14.23;54.33;100399.50;1681539;83;21525;-69
2022/10/30 07:08:33;;;;;;;5.85;2.20;;;;;;;14.21;54.07;100390.88;1693161;83;21038;-68
2022/10/30 07:11:02;;;;;;;6.85;2.80;;;;;;;14.24;54.07;100402.47;1716565;82;21635;-68
2022/10/30 07:13:42;;;;;;;7.50;2.55;;;;;;;14.26;54.58;100392.59;1693679;83;21083;-69
2022/10/30 07:16:18;;;;;;;6.80;2.17;;;;;;;14.29;54.52;100393.14;1691121;83;21058;-69
2022/10/30 07:18:46;;;;;;;5.92;2.47;;;;;;;14.31;54.30;100393.81;1698378;82;21557;-69
2022/10/30 07:21:15;;;;;;;8.45;2.67;;;;;;;14.35;54.62;100390.38;1714453;83;21019;-69
2022/10/30 07:23:41;;;;;;;7.87;2.42;;;;;;;14.35;54.62;100385.09;1710009;82;21019;-69
2022/10/30 07:26:28;;;;;;;8.00;2.40;;;;;;;14.37;54.72;100392.38;1714061;83;21053;-69
2022/10/30 07:28:56;;;;;;;8.90;2.45;;;;;;;14.39;54.74;100389.59;1701324;82;21122;-69
2022/10/30 07:31:42;;;;;;;7.10;2.40;;;;;;;14.40;54.70;100391.27;1708295;82;21043;-69
2022/10/30 07:34:20;;;;;;;7.67;2.52;;;;;;;14.36;54.47;100385.44;1698222;82;21118;-68
2022/10/30 07:37:05;;;;;;;8.37;2.73;;;;;;;14.30;54.68;100390.81;1720332;83;21584;-68
2022/10/30 07:39:48;;;;;;;5.70;2.27;;;;;;;14.30;54.58;100396.60;1711035;82;21098;-69
2022/10/30 07:42:20;;;;;;;8.58;2.40;;;;;;;14.29;54.58;100393.14;1691072;84;21640;-69
2022/10/30 07:45:06;;;;;;;6.10;2.47;;;;;;;14.25;54.65;100382.48;1706844;82;21020;-69
2022/10/30 07:47:42;;;;;;;6.83;2.42;;;;;;;14.25;55.03;100393.56;1712264;83;21047;-69
2022/10/30 07:50:19;;;;;;;9.08;2.10;;;;;;;14.22;55.01;100394.70;1704471;83;21088;-69
2022/10/30 07:52:47;;;;;;;6.53;2.45;;;;;;;14.24;55.10;100398.03;1704712;83;21086;-68
2022/10/30 07:55:15;;;;;;;5.87;2.37;;;;;;;14.26;55.03;100392.59;1700871;83;21833;-69
2022/10/30 07:57:48;;;;;;;9.68;2.67;;;;;;;14.26;54.80;100397.89;1700669;83;21452;-69
2022/10/30 08:00:33;;;;;;;8.80;2.20;;;;;;;14.25;54.81;100385.13;1698619;82;21086;-69
2022/10/30 08:03:02;;;;;;;5.65;2.30;;;;;;;14.25;55.11;100382.98;1698128;83;21030;-69
2022/10/30 08:05:37;;;;;;;5.90;2.75;;;;;;;14.27;55.23;100395.10;1696177;83;21029;-70
2022/10/30 08:08:06;;;;;;;6.45;2.42;;;;;;;14.30;55.01;100385.52;1700091;83;21924;-70
2022/10/30 08:10:35;;;;;;;7.33;2.30;;;;;;;14.34;54.57;100384.77;1703567;83;21007;-70
2022/10/30 08:13:03;;;;;;;9.00;2.25;;;;;;;14.36;54.32;100388.59;1703582;84;21094;-68
2022/10/30 08:15:32;;;;;;;7.80;2.00;;;;;;;14.36;54.24;100390.73;1700872;83;21538;-68
2022/10/30 08:18:00;;;;;;;7.10;1.90;;;;;;;14.32;54.34;100390.67;1702053;82;21119;-67
2022/10/30 08:20:27;;;;;;;6.33;2.15;;;;;;;14.31;54.43;100395.64;1697341;82;21323;-67
2022/10/30 08:22:56;;;;;;;6.17;2.15;;;;;;;14.33;54.18;100391.52;1693691;83;21087;-68
2022/10/30 08:25:28;;;;;;;8.40;2.08;;;;;;;14.25;53.75;100400.19;1698695;83;21059;-69
2022/10/30 08:28:01;;;;;;;6.03;1.98;;;;;;;14.21;54.09;100389.06;1701749;84;21035;-68
2022/10/30 08:30:36;;;;;;;3.80;1.60;;;;;;;14.24;54.17;100408.62;1699742;83;21075;-68
2022/10/30 08:33:06;;;;;;;11.60;2.70;;;;;;;14.28;53.69;100409.16;1697778;83;21207;-68
2022/10/30 08:35:40;;;;;;;4.15;1.67;;;;;;;14.26;54.04;100415.09;1670596;83;21026;-69
2022/10/30 08:38:07;;;;;;;5.92;1.60;;;;;;;14.27;53.71;100414.09;1694497;82;21057;-69
2022/10/30 08:40:34;;;;;;;6.87;1.87;;;;;;;14.29;53.52;100400.25;1673981;84;21118;-69
2022/10/30 08:43:05;;;;;;;6.33;1.40;;;;;;;14.28;53.47;100415.28;1700114;83;21106;-69
2022/10/30 08:45:33;;;;;;;6.83;1.85;;;;;;;14.29;53.77;100422.25;1663137;84;22358;-69
2022/10/30 08:48:05;;;;;;;5.85;2.00;;;;;;;14.30;53.52;100416.45;1666095;84;21088;-69
2022/10/30 08:50:33;;;;;;;6.75;2.02;;;;;;;14.28;53.41;100413.13;1664819;85;21031;-69
2022/10/30 08:53:05;;;;;;;6.00;1.92;;;;;;;14.26;53.61;100432.30;1709394;82;21089;-69
2022/10/30 08:55:34;;;;;;;5.92;1.72;;;;;;;14.24;53.83;100431.59;1686795;82;21328;-69
2022/10/30 08:58:02;;;;;;;5.28;1.87;;;;;;;14.22;53.82;100429.58;1712299;83;21130;-69
2022/10/30 09:00:30;;;;;;;7.42;1.85;;;;;;;14.23;53.95;100428.61;1715571;82;21082;-69
2022/10/30 09:03:11;;;;;;;7.72;1.70;;;;;;;14.24;53.78;100431.59;1710897;82;21559;-69
2022/10/30 09:05:41;;;;;;;8.33;2.33;;;;;;;14.23;53.74;100424.14;1667389;83;21542;-69
2022/10/30 09:08:17;;;;;;;7.15;1.37;;;;;;;14.23;53.90;100426.79;1714532;83;21571;-68
2022/10/30 09:10:57;;;;;;;7.95;2.15;;;;;;;14.23;53.54;100420.67;1714323;82;21718;-68
2022/10/30 09:13:25;;;;;;;6.47;1.65;;;;;;;14.19;53.75;100426.75;1711533;83;21074;-68
2022/10/30 09:15:52;;;;;;;5.50;1.47;;;;;;;14.19;53.57;100428.54;1716654;82;21566;-68
2022/10/30 09:18:19;;;;;;;8.18;2.00;;;;;;;14.20;53.66;100433.69;1714931;82;21062;-69
2022/10/30 09:20:50;;;;;;;5.05;1.95;;;;;;;14.20;53.18;100422.28;1714844;82;21069;-69
2022/10/30 09:23:16;;;;;;;5.87;1.82;;;;;;;14.20;53.55;100424.43;1715438;82;21113;-69
2022/10/30 09:25:45;;;;;;;5.87;1.25;;;;;;;14.22;53.41;100415.88;1716792;82;21006;-69
2022/10/30 09:28:14;;;;;;;4.90;1.47;;;;;;;14.21;53.75;100417.34;1716876;83;21061;-68
2022/10/30 09:30:45;;;;;;;6.47;1.40;;;;;;;14.25;53.31;100430.12;1693978;83;21473;-69
2022/10/30 09:33:14;;;;;;;5.00;1.32;;;;;;;14.30;53.15;100425.72;1717409;82;21053;-69
2022/10/30 09:35:45;;;;;;;8.05;1.42;;;;;;;14.34;52.65;100424.94;1714041;82;21179;-68
2022/10/30 09:38:12;;;;;;;8.88;1.30;;;;;;;14.32;52.43;100425.08;1717712;82;21010;-68
2022/10/30 09:41:12;;;;;;;5.30;1.62;;;;;;;14.34;52.68;100419.64;1716415;82;21030;-68
2022/10/30 09:43:52;;;;;;;10.23;1.40;;;;;;;14.35;52.80;100419.49;1714853;83;21050;-69
2022/10/30 09:46:30;;;;;;;6.12;1.60;;;;;;;14.37;53.10;100422.00;1727986;80;21025;-69
2022/10/30 09:49:17;;;;;;;4.22;1.25;;;;;;;14.41;52.98;100422.06;1729313;82;21161;-69
2022/10/30 09:52:14;;;;;;;6.12;1.45;;;;;;;14.46;52.83;100419.81;1721093;82;20993;-69
2022/10/30 09:55:12;;;;;;;7.53;1.45;;;;;;;14.48;52.82;100423.14;1731469;82;22208;-68
2022/10/30 09:58:04;;;;;;;11.63;1.80;;;;;;;14.45;52.60;100410.19;1702044;82;21121;-69
2022/10/30 10:00:36;;;;;;;5.28;1.70;;;;;;;14.46;52.69;100419.81;1733593;81;21676;-70
2022/10/30 10:03:20;;;;;;;5.47;1.75;;;;;;;14.41;52.38;100410.98;1707694;82;21114;-69
2022/10/30 10:05:58;;;;;;;5.33;1.75;;;;;;;14.39;52.75;100426.19;1665708;83;21061;-68
2022/10/30 10:08:45;;;;;;;7.03;1.70;;;;;;;14.34;52.24;100414.34;1705179;83;21621;-68
2022/10/30 10:11:36;;;;;;;6.85;1.75;;;;;;;14.33;52.59;100415.34;1658783;83;21510;-69
2022/10/30 10:14:18;;;;;;;6.08;1.70;;;;;;;14.33;52.86;100410.05;1692562;83;21565;-69
2022/10/30 10:16:57;;;;;;;7.03;1.70;;;;;;;14.38;52.97;100417.06;1692226;83;21143;-69
2022/10/30 10:19:48;;;;;;;7.37;1.37;;;;;;;14.40;52.42;100407.15;1693013;83;21044;-69
2022/10/30 10:22:28;;;;;;;5.15;1.45;;;;;;;14.42;52.53;100407.83;1697060;83;21525;-69
2022/10/30 10:24:56;;;;;;;5.35;1.70;;;;;;;14.41;52.18;100409.66;1715283;83;21131;-68
2022/10/30 10:28:08;;;;;;;5.55;1.40;;;;;;;14.43;52.56;100406.36;1716827;82;21103;-68
2022/10/30 10:30:53;;;;;;;4.25;1.37;;;;;;;14.46;52.46;100408.72;1700559;82;21325;-69
2022/10/30 10:33:40;;;;;;;5.35;1.60;;;;;;;14.44;52.04;100408.51;1713903;83;21015;-69
2022/10/30 10:36:16;;;;;;;6.60;1.52;;;;;;;14.44;51.87;100405.86;1697570;82;21020;-69
2022/10/30 10:39:19;;;;;;;5.25;1.62;;;;;;;14.47;52.36;100405.58;1657154;86;21741;-69
2022/10/30 10:41:59;;;;;;;4.75;1.27;;;;;;;14.52;52.35;100400.67;1709038;83;20993;-69
2022/10/30 10:44:58;;;;;;;5.00;1.47;;;;;;;14.58;52.00;100404.05;1705799;82;21248;-69
2022/10/30 10:47:59;;;;;;;7.58;1.65;;;;;;;14.62;52.18;100404.62;1752405;81;21050;-69
2022/10/30 10:50:30;;;;;;;6.05;1.47;;;;;;;14.64;51.72;100398.20;1742898;80;21039;-68
2022/10/30 10:53:08;;;;;;;4.40;1.67;;;;;;;14.64;51.47;100403.50;1696948;82;21089;-69
2022/10/30 10:55:37;;;;;;;5.33;1.20;;;;;;;14.66;51.52;100395.41;1709899;82;21072;-70
2022/10/30 10:58:15;;;;;;;6.22;1.65;;;;;;;14.66;51.95;100397.56;1709368;83;21916;-69
2022/10/30 11:00:42;;;;;;;5.45;1.40;;;;;;;14.66;51.58;100398.06;1710449;82;21082;-68
2022/10/30 11:03:34;;;;;;;6.42;1.60;;;;;;;14.65;51.70;100398.53;1708635;83;21054;-69
2022/10/30 11:06:21;;;;;;;5.65;1.67;;;;;;;14.66;51.54;100388.29;1700670;82;22258;-70
2022/10/30 11:08:49;;;;;;;9.68;2.33;;;;;;;14.67;52.05;100383.31;1690036;83;20979;-69
2022/10/30 11:11:15;;;;;;;7.22;2.25;;;;;;;14.71;52.07;100383.88;1709868;82;21279;-68
2022/10/30 11:13:43;;;;;;;6.28;2.00;;;;;;;14.74;52.56;100384.88;1692973;82;21025;-68
2022/10/30 11:16:36;;;;;;;6.45;2.33;;;;;;;14.75;52.42;100377.78;1702528;82;21034;-68
2022/10/30 11:19:06;;;;;;;10.45;2.05;;;;;;;14.76;52.88;100376.78;1752453;81;21070;-68
2022/10/30 11:21:41;;;;;;;7.58;1.60;;;;;;;14.76;52.50;100370.16;1747368;80;21090;-68
2022/10/30 11:24:34;;;;;;;5.25;1.75;;;;;;;14.77;52.02;100369.19;1698374;83;21241;-68
2022/10/30 11:27:27;;;;;;;6.45;1.80;;;;;;;14.78;52.21;100361.59;1750740;80;21048;-67
2022/10/30 11:30:00;;;;;;;7.42;1.72;;;;;;;14.80;52.26;100368.89;1734526;80;21038;-69
2022/10/30 11:32:30;;;;;;;5.22;2.00;;;;;;;14.82;52.17;100365.09;1750599;80;21624;-68
2022/10/30 11:35:12;;;;;;;7.40;1.92;;;;;;;14.81;52.05;100366.56;1730782;80;21078;-68
2022/10/30 11:37:40;;;;;;;6.30;1.92;;;;;;;14.81;52.26;100370.55;1745303;82;21266;-68
2022/10/30 11:40:17;;;;;;;5.45;1.87;;;;;;;14.76;51.76;100372.81;1729871;80;21042;-69
2022/10/30 11:43:01;;;;;;;6.05;1.92;;;;;;;14.74;52.02;100358.39;1744727;81;21079;-68
2022/10/30 11:45:35;;;;;;;5.60;1.55;;;;;;;14.75;52.19;100364.04;1736475;80;21098;-68
2022/10/30 11:48:29;;;;;;;7.55;1.87;;;;;;;14.76;52.37;100362.22;1748255;81;21201;-68